createdAt,value
2023-04-29T00:02:00.154Z,36.43
2023-04-29T00:04:30.359Z,38.57
2023-04-29T00:07:00.298Z,38.20
2023-04-29T00:09:30.004Z,39.13
2023-04-29T00:11:59.824Z,40.77
2023-04-29T00:14:32.128Z,36.93
2023-04-29T00:17:01.946Z,38.13
2023-04-29T00:19:31.720Z,39.00
2023-04-29T00:22:01.540Z,38.70
2023-04-29T00:24:31.331Z,40.67
2023-04-29T00:27:01.815Z,40.17
2023-04-29T00:29:34.169Z,37.77
2023-04-29T00:32:04.133Z,38.10
2023-04-29T00:34:33.898Z,38.80
2023-04-29T00:37:04.221Z,39.90
2023-04-29T00:39:34.418Z,38.50
2023-04-29T00:42:04.288Z,39.50
2023-04-29T00:44:36.611Z,39.77
2023-04-29T00:47:06.432Z,40.37
2023-04-29T00:49:36.188Z,39.97
2023-04-29T00:52:08.266Z,37.27
2023-04-29T00:54:38.169Z,39.60
2023-04-29T00:57:09.050Z,39.43
2023-04-29T00:59:41.640Z,37.57
2023-04-29T01:02:11.777Z,39.13
2023-04-29T01:04:41.509Z,40.37
2023-04-29T01:07:18.439Z,38.60
2023-04-29T01:09:59.866Z,38.10
2023-04-29T01:12:37.180Z,40.60
2023-04-29T01:15:24.012Z,38.27
2023-04-29T01:18:00.285Z,37.47
2023-04-29T01:20:31.255Z,37.53
2023-04-29T01:23:02.063Z,36.77
2023-04-29T01:25:34.844Z,36.60
2023-04-29T01:28:23.903Z,37.03
2023-04-29T01:31:00.354Z,37.43
2023-04-29T01:33:38.182Z,38.80
2023-04-29T01:36:19.817Z,38.30
2023-04-29T01:38:56.642Z,39.10
2023-04-29T01:41:38.402Z,38.20
2023-04-29T01:44:21.744Z,37.43
2023-04-29T01:46:54.817Z,36.40
2023-04-29T01:49:29.687Z,37.00
2023-04-29T01:51:59.437Z,35.90
2023-04-29T01:54:29.175Z,35.20
2023-04-29T01:57:02.922Z,36.37
2023-04-29T01:59:58.626Z,34.10
2023-04-29T02:02:42.981Z,33.93
2023-04-29T02:05:26.573Z,31.40
2023-04-29T02:07:59.668Z,31.70
2023-04-29T02:10:29.550Z,30.07
2023-04-29T02:13:13.859Z,30.27
2023-04-29T02:15:44.706Z,29.17
2023-04-29T02:18:14.806Z,28.47
2023-04-29T02:20:44.781Z,31.07
2023-04-29T02:23:14.763Z,32.30
2023-04-29T02:25:44.485Z,32.00
2023-04-29T02:28:17.998Z,34.90
2023-04-29T02:30:47.790Z,35.30
2023-04-29T02:33:18.531Z,34.93
2023-04-29T02:35:48.555Z,36.07
2023-04-29T02:38:19.536Z,38.67
2023-04-29T02:40:50.615Z,37.00
2023-04-29T02:43:23.308Z,38.07
2023-04-29T02:45:53.122Z,40.80
2023-04-29T02:48:23.090Z,40.77
2023-04-29T02:50:53.006Z,40.40
2023-04-29T02:53:23.514Z,42.00
2023-04-29T02:55:53.309Z,42.70
2023-04-29T02:58:25.703Z,42.57
2023-04-29T03:00:55.657Z,41.80
2023-04-29T03:03:25.999Z,43.40
2023-04-29T03:05:55.844Z,44.90
2023-04-29T03:08:25.629Z,46.17
2023-04-29T03:10:55.367Z,46.80
2023-04-29T03:13:28.411Z,48.20
2023-04-29T03:15:58.846Z,46.83
2023-04-29T03:18:28.926Z,51.10
2023-04-29T03:20:58.791Z,51.47
2023-04-29T03:23:28.652Z,54.83
2023-04-29T03:25:58.933Z,51.63
2023-04-29T03:28:31.583Z,52.10
2023-04-29T03:31:02.110Z,52.63
2023-04-29T03:33:32.004Z,56.00
2023-04-29T03:36:01.939Z,56.70
2023-04-29T03:38:38.299Z,53.10
2023-04-29T03:41:08.459Z,53.50
2023-04-29T03:43:41.096Z,52.73
2023-04-29T03:46:10.921Z,49.83
2023-04-29T03:48:41.216Z,50.80
2023-04-29T03:51:14.321Z,50.40
2023-04-29T03:53:44.662Z,50.87
2023-04-29T03:56:15.483Z,52.10
2023-04-29T03:58:49.279Z,51.83
2023-04-29T04:01:19.574Z,56.00
2023-04-29T04:03:49.828Z,54.37
2023-04-29T04:06:19.818Z,57.50
2023-04-29T04:08:50.150Z,59.80
2023-04-29T04:11:23.740Z,62.80
2023-04-29T04:14:02.024Z,64.53
2023-04-29T04:16:32.835Z,68.17
2023-04-29T04:19:03.024Z,68.67
2023-04-29T04:21:34.823Z,68.60
2023-04-29T04:24:10.040Z,70.97
2023-04-29T04:26:41.649Z,68.20
2023-04-29T04:29:14.365Z,69.67
2023-04-29T04:32:13.128Z,67.93
2023-04-29T04:34:43.060Z,69.50
2023-04-29T04:37:13.324Z,73.47
2023-04-29T04:39:45.096Z,69.30
2023-04-29T04:42:17.141Z,68.97
2023-04-29T04:44:51.792Z,73.13
2023-04-29T04:47:34.641Z,72.10
2023-04-29T04:50:10.651Z,70.93
2023-04-29T04:52:41.280Z,70.00
2023-04-29T04:55:29.687Z,74.03
2023-04-29T04:57:59.746Z,73.50
2023-04-29T05:00:32.683Z,78.20
2023-04-29T05:03:02.759Z,75.50
2023-04-29T05:05:32.582Z,74.37
2023-04-29T05:08:02.414Z,74.20
2023-04-29T05:10:44.605Z,72.80
2023-04-29T05:13:15.341Z,68.97
2023-04-29T05:15:48.491Z,73.10
2023-04-29T05:18:23.443Z,71.13
2023-04-29T05:20:54.680Z,78.50
2023-04-29T05:23:24.568Z,72.23
2023-04-29T05:25:55.011Z,72.00
2023-04-29T05:28:26.042Z,70.83
2023-04-29T05:31:01.453Z,72.70
2023-04-29T05:33:31.249Z,69.63
2023-04-29T05:36:01.136Z,70.57
2023-04-29T05:38:31.434Z,68.37
2023-04-29T05:41:06.537Z,69.10
2023-04-29T05:43:46.506Z,68.77
2023-04-29T05:46:20.758Z,67.10
2023-04-29T05:48:52.165Z,64.00
2023-04-29T05:51:22.146Z,61.47
2023-04-29T05:53:52.330Z,62.00
2023-04-29T05:56:22.606Z,62.13
2023-04-29T05:58:52.493Z,57.80
2023-04-29T06:01:24.815Z,60.53
2023-04-29T06:03:54.865Z,62.27
2023-04-29T06:06:41.389Z,59.40
2023-04-29T06:09:27.448Z,60.10
2023-04-29T06:11:59.796Z,55.87
2023-04-29T06:14:29.602Z,56.80
2023-04-29T06:17:02.256Z,54.73
2023-04-29T06:19:33.745Z,53.00
2023-04-29T06:22:03.565Z,54.30
2023-04-29T06:24:34.353Z,50.23
2023-04-29T06:27:04.829Z,50.67
2023-04-29T06:29:34.770Z,48.10
2023-04-29T06:32:08.035Z,51.23
2023-04-29T06:34:39.635Z,49.80
2023-04-29T06:37:29.157Z,49.50
2023-04-29T06:40:28.278Z,46.43
2023-04-29T06:43:08.297Z,43.97
2023-04-29T06:45:58.369Z,47.23
2023-04-29T06:48:38.179Z,45.30
2023-04-29T06:51:08.488Z,43.07
2023-04-29T06:53:40.155Z,45.03
2023-04-29T06:56:10.872Z,44.53
2023-04-29T06:58:40.601Z,43.03
2023-04-29T07:01:11.163Z,42.77
2023-04-29T07:03:44.032Z,47.13
2023-04-29T07:06:15.000Z,43.67
2023-04-29T07:08:44.880Z,43.03
2023-04-29T07:11:15.066Z,43.23
2023-04-29T07:13:44.864Z,41.00
2023-04-29T07:16:20.660Z,41.83
2023-04-29T07:18:53.126Z,44.67
2023-04-29T07:21:22.884Z,42.63
2023-04-29T07:23:52.742Z,43.07
2023-04-29T07:26:22.518Z,42.03
2023-04-29T07:28:52.306Z,43.70
2023-04-29T07:31:22.733Z,41.53
2023-04-29T07:33:55.327Z,42.63
2023-04-29T07:36:25.244Z,37.57
2023-04-29T07:38:55.257Z,38.90
2023-04-29T07:41:25.041Z,33.63
2023-04-29T07:43:54.783Z,31.53
2023-04-29T07:46:24.624Z,33.87
2023-04-29T07:48:58.528Z,39.30
2023-04-29T07:51:29.306Z,35.13
2023-04-29T07:53:59.059Z,33.97
2023-04-29T07:56:28.816Z,33.77
2023-04-29T07:58:58.590Z,31.67
2023-04-29T08:01:28.485Z,30.43
2023-04-29T08:04:01.218Z,30.17
2023-04-29T08:06:31.393Z,28.70
2023-04-29T08:09:02.709Z,27.00
2023-04-29T08:11:33.095Z,29.30
2023-04-29T08:14:02.922Z,26.83
2023-04-29T08:16:32.730Z,27.90
2023-04-29T08:19:05.238Z,26.77
2023-04-29T08:21:35.441Z,25.93
2023-04-29T08:24:05.888Z,26.00
2023-04-29T08:26:35.672Z,27.57
2023-04-29T08:29:05.649Z,26.17
2023-04-29T08:31:35.705Z,25.40
2023-04-29T08:34:08.067Z,28.60
2023-04-29T08:36:38.845Z,28.13
2023-04-29T08:39:09.066Z,29.63
2023-04-29T08:41:40.000Z,31.10
2023-04-29T08:44:09.814Z,29.97
2023-04-29T08:46:40.197Z,29.90
2023-04-29T08:49:13.141Z,31.00
2023-04-29T08:51:42.953Z,28.17
2023-04-29T08:54:14.071Z,27.40
2023-04-29T08:56:48.742Z,27.80
2023-04-29T08:59:20.258Z,26.93
2023-04-29T09:01:54.104Z,26.43
2023-04-29T09:04:40.982Z,27.57
2023-04-29T09:07:11.377Z,26.17
2023-04-29T09:09:42.769Z,25.10
2023-04-29T09:12:12.543Z,25.70
2023-04-29T09:14:42.318Z,24.43
2023-04-29T09:17:12.133Z,25.23
2023-04-29T09:19:44.627Z,24.73
2023-04-29T09:22:14.421Z,23.77
2023-04-29T09:24:45.766Z,23.07
2023-04-29T09:27:29.891Z,23.13
2023-04-29T09:30:03.866Z,23.30
2023-04-29T09:32:33.844Z,24.27
2023-04-29T09:35:25.100Z,23.23
2023-04-29T09:37:56.664Z,22.37
2023-04-29T09:40:40.433Z,22.90
2023-04-29T09:43:18.493Z,23.97
2023-04-29T09:45:50.092Z,21.23
2023-04-29T09:48:20.515Z,22.73
2023-04-29T09:51:04.801Z,23.23
2023-04-29T09:53:38.199Z,23.60
2023-04-29T09:56:09.514Z,21.93
2023-04-29T09:58:40.569Z,22.40
2023-04-29T10:01:13.580Z,21.00
2023-04-29T10:03:45.261Z,19.43
2023-04-29T10:06:20.034Z,19.00
2023-04-29T10:08:51.030Z,19.17
2023-04-29T10:11:21.034Z,18.73
2023-04-29T10:13:53.134Z,17.87
2023-04-29T10:16:31.907Z,15.00
2023-04-29T10:19:07.088Z,14.43
2023-04-29T10:21:39.739Z,13.80
2023-04-29T10:24:10.747Z,12.40
2023-04-29T10:26:42.524Z,12.47
2023-04-29T10:29:14.142Z,12.00
2023-04-29T10:31:46.243Z,11.80
2023-04-29T10:34:16.724Z,12.80
2023-04-29T10:36:50.032Z,12.10
2023-04-29T10:39:30.800Z,12.70
2023-04-29T10:42:01.204Z,11.70
2023-04-29T10:44:30.950Z,12.57
2023-04-29T10:47:22.319Z,12.60
2023-04-29T10:50:07.605Z,11.03
2023-04-29T10:52:58.107Z,12.83
2023-04-29T10:55:28.106Z,10.77
2023-04-29T10:57:58.738Z,10.47
2023-04-29T11:00:30.795Z,10.70
2023-04-29T11:03:02.527Z,10.87
2023-04-29T11:05:37.185Z,11.10
2023-04-29T11:08:23.190Z,11.50
2023-04-29T11:10:55.784Z,10.87
2023-04-29T11:13:28.160Z,10.53
2023-04-29T11:16:07.371Z,11.47
2023-04-29T11:18:38.170Z,10.90
2023-04-29T11:21:17.807Z,11.37
2023-04-29T11:23:51.057Z,11.13
2023-04-29T11:26:22.473Z,11.00
2023-04-29T11:28:54.755Z,11.10
2023-04-29T11:31:25.391Z,10.80
2023-04-29T11:33:56.630Z,11.07
2023-04-29T11:36:27.462Z,10.10
2023-04-29T11:38:59.824Z,9.63
2023-04-29T11:41:29.735Z,9.60
2023-04-29T11:44:00.395Z,10.00
2023-04-29T11:46:34.082Z,9.50
2023-04-29T11:49:04.829Z,9.67
2023-04-29T11:51:34.645Z,10.10
2023-04-29T11:54:08.304Z,9.93
2023-04-29T11:56:40.965Z,10.70
2023-04-29T11:59:10.901Z,10.27
2023-04-29T12:01:40.895Z,9.80
2023-04-29T12:04:10.839Z,8.70
2023-04-29T12:06:41.859Z,10.00
2023-04-29T12:09:15.985Z,8.73
2023-04-29T12:11:47.186Z,9.87
2023-04-29T12:14:17.390Z,9.20
2023-04-29T12:16:47.337Z,10.00
2023-04-29T12:19:17.355Z,8.30
2023-04-29T12:21:53.607Z,8.43
2023-04-29T12:24:27.377Z,7.90
2023-04-29T12:26:59.912Z,6.90
2023-04-29T12:29:29.804Z,7.53
2023-04-29T12:31:59.873Z,9.20
2023-04-29T12:34:31.596Z,9.43
2023-04-29T12:37:02.981Z,8.23
2023-04-29T12:39:35.825Z,8.70
2023-04-29T12:42:06.006Z,7.93
2023-04-29T12:44:38.907Z,8.00
2023-04-29T12:47:13.775Z,8.07
2023-04-29T12:49:45.471Z,7.80
2023-04-29T12:52:15.323Z,7.93
2023-04-29T12:54:47.967Z,6.60
2023-04-29T12:57:17.704Z,8.13
2023-04-29T12:59:47.435Z,8.23
2023-04-29T13:02:17.675Z,7.17
2023-04-29T13:04:47.737Z,7.03
2023-04-29T13:07:18.384Z,7.40
2023-04-29T13:09:51.165Z,5.90
2023-04-29T13:12:20.876Z,7.70
2023-04-29T13:14:51.465Z,6.80
2023-04-29T13:17:21.406Z,7.10
2023-04-29T13:19:52.268Z,6.10
2023-04-29T13:22:22.659Z,6.00
2023-04-29T13:24:55.277Z,5.97
2023-04-29T13:27:25.276Z,5.90
2023-04-29T13:29:55.406Z,6.30
2023-04-29T13:32:25.931Z,6.90
2023-04-29T13:34:56.521Z,5.80
2023-04-29T13:37:26.583Z,6.80
2023-04-29T13:39:58.898Z,5.53
2023-04-29T13:42:28.661Z,5.60
2023-04-29T13:44:58.470Z,6.20
2023-04-29T13:47:30.429Z,5.60
2023-04-29T14:05:28.590Z,5.37
2023-04-29T14:07:58.476Z,4.57
2023-04-29T14:10:31.338Z,5.10
2023-04-29T14:13:01.314Z,4.47
2023-04-29T14:15:31.199Z,4.90
2023-04-29T14:18:01.127Z,4.50
2023-04-29T14:20:30.975Z,5.50
2023-04-29T14:23:01.054Z,5.60
2023-04-29T14:25:34.075Z,4.27
2023-04-29T14:28:04.186Z,5.27
2023-04-29T14:30:33.953Z,4.53
2023-04-29T14:33:04.217Z,4.33
2023-04-29T14:35:34.215Z,4.47
2023-04-29T14:38:03.929Z,4.77
2023-04-29T14:40:36.656Z,4.40
2023-04-29T14:43:06.776Z,4.53
2023-04-29T14:45:37.802Z,4.27
2023-04-29T14:48:08.226Z,4.50
2023-04-29T14:50:38.089Z,4.30
2023-04-29T14:53:08.947Z,4.50
2023-04-29T14:55:41.307Z,4.73
2023-04-29T14:58:11.041Z,4.00
2023-04-29T15:00:40.800Z,4.40
2023-04-29T15:03:10.956Z,4.77
2023-04-29T15:05:41.166Z,3.90
2023-04-29T15:08:11.446Z,4.60
2023-04-29T15:10:44.186Z,4.60
2023-04-29T15:13:13.982Z,6.03
2023-04-29T15:15:43.773Z,4.40
2023-04-29T15:18:13.732Z,5.10
2023-04-29T15:20:43.597Z,3.50
2023-04-29T15:23:13.386Z,3.70
2023-04-29T15:25:45.891Z,3.90
2023-04-29T15:28:15.806Z,3.10
2023-04-29T15:30:45.551Z,3.90
2023-04-29T15:33:15.334Z,3.90
2023-04-29T15:35:45.183Z,4.90
2023-04-29T15:38:14.989Z,4.43
2023-04-29T15:40:47.360Z,4.10
2023-04-29T15:43:17.185Z,4.17
2023-04-29T15:45:46.940Z,4.80
2023-04-29T15:48:16.865Z,4.60
2023-04-29T15:50:46.864Z,3.80
2023-04-29T15:53:16.613Z,4.40
2023-04-29T15:55:48.915Z,5.27
2023-04-29T15:58:18.767Z,4.63
2023-04-29T16:00:48.548Z,4.10
2023-04-29T16:03:18.466Z,4.00
2023-04-29T16:05:48.243Z,3.90
2023-04-29T16:08:18.003Z,3.50
2023-04-29T16:10:50.376Z,3.40
2023-04-29T16:13:20.180Z,3.63
2023-04-29T16:15:50.045Z,3.80
2023-04-29T16:18:20.548Z,2.97
2023-04-29T16:20:50.284Z,2.83
2023-04-29T16:23:20.042Z,3.73
2023-04-29T16:25:52.865Z,5.30
2023-04-29T16:28:22.645Z,4.00
2023-04-29T16:30:52.413Z,4.10
2023-04-29T16:33:22.281Z,3.23
2023-04-29T16:35:52.223Z,4.00
2023-04-29T16:38:21.970Z,4.83
2023-04-29T16:40:54.526Z,4.30
2023-04-29T16:43:24.487Z,4.27
2023-04-29T16:45:54.335Z,4.20
2023-04-29T16:48:24.171Z,5.23
2023-04-29T16:50:53.970Z,4.37
2023-04-29T16:53:23.915Z,4.10
2023-04-29T16:55:56.462Z,4.73
2023-04-29T16:58:26.231Z,4.40
2023-04-29T17:00:56.305Z,5.03
2023-04-29T17:03:26.107Z,2.87
2023-04-29T17:05:56.276Z,3.00
2023-04-29T17:08:27.379Z,2.77
2023-04-29T17:10:59.771Z,2.80
2023-04-29T17:13:29.892Z,3.07
2023-04-29T17:15:59.651Z,2.97
2023-04-29T17:18:29.661Z,2.80
2023-04-29T17:20:59.459Z,2.20
2023-04-29T17:23:30.810Z,3.27
2023-04-29T17:26:03.418Z,2.50
2023-04-29T17:28:33.476Z,2.10
2023-04-29T17:31:03.640Z,2.03
2023-04-29T17:33:37.117Z,2.27
2023-04-29T17:36:07.983Z,2.07
2023-04-29T17:38:37.760Z,2.53
2023-04-29T17:41:10.060Z,2.03
2023-04-29T17:43:39.903Z,2.53
2023-04-29T17:46:09.750Z,2.00
2023-04-29T17:48:39.603Z,2.30
2023-04-29T17:51:09.394Z,2.40
2023-04-29T17:53:39.139Z,2.70
2023-04-29T17:56:11.504Z,2.20
2023-04-29T17:58:41.224Z,2.50
2023-04-29T18:01:11.079Z,2.60
2023-04-29T18:03:42.139Z,2.97
2023-04-29T18:06:11.984Z,2.80
2023-04-29T18:08:42.150Z,3.73
2023-04-29T18:11:15.190Z,3.70
2023-04-29T18:13:45.395Z,3.00
2023-04-29T18:16:15.299Z,2.70
2023-04-29T18:18:45.085Z,3.00
2023-04-29T18:21:15.308Z,2.70
2023-04-29T18:23:45.041Z,3.10
2023-04-29T18:26:17.452Z,3.90
2023-04-29T18:28:47.521Z,3.20
2023-04-29T18:31:18.109Z,4.40
2023-04-29T18:33:48.056Z,4.83
2023-04-29T18:36:17.835Z,4.60
2023-04-29T18:38:47.632Z,4.00
2023-04-29T18:41:20.049Z,3.70
2023-04-29T18:43:49.777Z,4.00
2023-04-29T18:46:19.600Z,4.33
2023-04-29T18:48:49.363Z,3.70
2023-04-29T18:51:19.366Z,4.17
2023-04-29T18:53:49.155Z,4.50
2023-04-29T18:56:21.595Z,3.57
2023-04-29T18:58:51.532Z,3.70
2023-04-29T19:01:21.299Z,3.90
2023-04-29T19:03:51.678Z,3.30
2023-04-29T19:06:21.443Z,3.43
2023-04-29T19:08:51.263Z,3.73
2023-04-29T19:11:23.665Z,3.57
2023-04-29T19:13:53.458Z,3.50
2023-04-29T19:16:23.705Z,3.60
2023-04-29T19:18:53.686Z,3.90
2023-04-29T19:21:23.743Z,3.50
2023-04-29T19:23:53.943Z,4.00
2023-04-29T19:26:26.329Z,5.83
2023-04-29T19:28:56.073Z,4.90
2023-04-29T19:31:25.857Z,4.30
2023-04-29T19:33:55.689Z,3.80
2023-04-29T19:36:25.488Z,3.90
2023-04-29T19:38:55.323Z,3.27
2023-04-29T19:41:27.698Z,3.87
2023-04-29T19:43:57.476Z,3.90
2023-04-29T19:46:27.292Z,3.60
2023-04-29T19:48:57.461Z,3.80
2023-04-29T19:51:27.215Z,3.60
2023-04-29T19:54:01.653Z,4.40
2023-04-29T19:56:34.056Z,3.40
2023-04-29T19:59:03.803Z,4.37
2023-04-29T20:01:33.876Z,3.80
2023-04-29T20:04:03.738Z,3.20
2023-04-29T20:06:37.681Z,4.30
2023-04-29T20:09:09.511Z,3.57
2023-04-29T20:11:41.818Z,4.00
2023-04-29T20:14:11.745Z,4.73
2023-04-29T20:16:41.683Z,4.10
2023-04-29T20:19:12.010Z,3.80
2023-04-29T20:21:42.261Z,3.30
2023-04-29T20:24:11.978Z,4.00
2023-04-29T20:26:44.321Z,4.10
2023-04-29T20:29:14.079Z,4.87
2023-04-29T20:31:44.075Z,5.43
2023-04-29T20:34:13.965Z,4.60
2023-04-29T20:36:43.718Z,3.80
2023-04-29T20:39:13.551Z,3.93
2023-04-29T20:41:45.867Z,4.13
2023-04-29T20:44:15.617Z,4.03
2023-04-29T20:46:46.228Z,4.40
2023-04-29T20:49:16.001Z,4.07
2023-04-29T20:51:45.842Z,3.77
2023-04-29T20:54:15.566Z,4.57
2023-04-29T20:56:47.886Z,4.90
2023-04-29T20:59:17.645Z,7.30
2023-04-29T21:01:47.628Z,8.20
2023-04-29T21:04:18.197Z,7.90
2023-04-29T21:06:47.950Z,7.17
2023-04-29T21:09:18.001Z,6.00
2023-04-29T21:11:50.621Z,5.27
2023-04-29T21:14:20.410Z,4.87
2023-04-29T21:16:50.179Z,5.73
2023-04-29T21:19:20.006Z,5.00
2023-04-29T21:21:49.733Z,5.70
2023-04-29T21:24:19.469Z,5.60
2023-04-29T21:26:51.776Z,5.60
2023-04-29T21:29:21.560Z,5.87
2023-04-29T21:31:51.433Z,6.67
2023-04-29T21:34:21.373Z,6.00
2023-04-29T21:36:51.112Z,5.70
2023-04-29T21:39:20.907Z,6.70
2023-04-29T21:41:53.658Z,6.17
2023-04-29T21:44:23.467Z,5.90
2023-04-29T21:46:53.289Z,6.10
2023-04-29T21:49:23.237Z,6.50
2023-04-29T21:51:53.141Z,5.37
2023-04-29T21:54:23.079Z,5.73
2023-04-29T21:56:56.295Z,6.10
2023-04-29T21:59:26.238Z,5.70
2023-04-29T22:02:00.605Z,5.47
2023-04-29T22:04:30.955Z,6.03
2023-04-29T22:07:01.217Z,5.57
2023-04-29T22:09:31.095Z,5.37
2023-04-29T22:12:03.777Z,4.80
2023-04-29T22:14:33.692Z,4.40
2023-04-29T22:17:03.650Z,4.50
2023-04-29T22:19:33.515Z,4.93
2023-04-29T22:22:04.317Z,5.50
2023-04-29T22:24:34.253Z,4.50
2023-04-29T22:27:07.062Z,4.60
2023-04-29T22:29:36.773Z,4.60
2023-04-29T22:32:07.342Z,5.40
2023-04-29T22:34:37.111Z,4.20
2023-04-29T22:37:07.035Z,4.50
2023-04-29T22:39:36.927Z,4.50
2023-04-29T22:42:09.675Z,5.20
2023-04-29T22:44:39.571Z,4.47
2023-04-29T22:47:09.430Z,5.27
2023-04-29T22:49:39.150Z,4.53
2023-04-29T22:52:08.965Z,4.60
2023-04-29T22:54:38.736Z,4.80
2023-04-29T22:57:11.227Z,5.47
2023-04-29T22:59:41.021Z,4.97
2023-04-29T23:02:10.887Z,4.90
2023-04-29T23:04:40.657Z,4.60
2023-04-29T23:07:10.451Z,4.13
2023-04-29T23:09:40.185Z,4.47
2023-04-29T23:12:12.537Z,4.43
2023-04-29T23:14:42.270Z,4.87
2023-04-29T23:17:12.035Z,5.80
2023-04-29T23:19:42.565Z,4.57
2023-04-29T23:22:12.899Z,5.20
2023-04-29T23:24:42.613Z,4.30
2023-04-29T23:27:14.924Z,5.47
2023-04-29T23:29:44.627Z,5.43
2023-04-29T23:32:14.353Z,4.80
2023-04-29T23:34:44.101Z,4.07
2023-04-29T23:37:13.858Z,4.80
2023-04-29T23:39:43.615Z,5.07
2023-04-29T23:42:15.935Z,5.77
2023-04-29T23:44:45.704Z,8.97
2023-04-29T23:47:15.408Z,5.07
2023-04-29T23:49:45.568Z,5.30
2023-04-29T23:52:15.305Z,5.00
2023-04-29T23:54:45.070Z,4.50
2023-04-29T23:57:18.036Z,4.97
2023-04-29T23:59:47.974Z,5.37
